sensor_id;sensor_type;location;lat;lon;timestamp;pressure;altitude;pressure_sealevel;temperature;humidity
1480;BME280;732;51.698;4.886;2022-12-07T00:01:45;101978.34;;;6.40;100.00
1480;BME280;732;51.698;4.886;2022-12-07T00:04:16;102001.63;;;6.55;100.00
1480;BME280;732;51.698;4.886;2022-12-07T00:06:50;102025.44;;;6.80;100.00
1480;BME280;732;51.698;4.886;2022-12-07T00:09:21;102030.81;;;6.83;100.00
1480;BME280;732;51.698;4.886;2022-12-07T00:11:51;102026.69;;;6.87;100.00
1480;BME280;732;51.698;4.886;2022-12-07T00:14:20;102024.91;;;6.86;100.00
1480;BME280;732;51.698;4.886;2022-12-07T00:16:50;101983.59;;;6.58;100.00
1480;BME280;732;51.698;4.886;2022-12-07T00:19:19;101972.88;;;6.52;100.00
1480;BME280;732;51.698;4.886;2022-12-07T00:21:49;102016.22;;;6.85;100.00
1480;BME280;732;51.698;4.886;2022-12-07T00:24:18;101976.28;;;6.67;100.00
1480;BME280;732;51.698;4.886;2022-12-07T00:26:46;101938.41;;;6.54;100.00
1480;BME280;732;51.698;4.886;2022-12-07T00:29:17;101992.00;;;6.86;100.00
1480;BME280;732;51.698;4.886;2022-12-07T00:31:46;102014.34;;;6.99;100.00
1480;BME280;732;51.698;4.886;2022-12-07T00:34:19;101981.16;;;6.77;100.00
1480;BME280;732;51.698;4.886;2022-12-07T00:36:50;101950.16;;;6.64;100.00
1480;BME280;732;51.698;4.886;2022-12-07T00:39:18;101996.03;;;6.97;100.00
1480;BME280;732;51.698;4.886;2022-12-07T00:41:47;102003.69;;;6.94;100.00
1480;BME280;732;51.698;4.886;2022-12-07T00:44:15;101996.41;;;6.87;100.00
1480;BME280;732;51.698;4.886;2022-12-07T00:46:44;102004.59;;;6.95;100.00
1480;BME280;732;51.698;4.886;2022-12-07T00:49:13;101945.28;;;6.54;100.00
1480;BME280;732;51.698;4.886;2022-12-07T00:51:41;101999.78;;;6.86;100.00
1480;BME280;732;51.698;4.886;2022-12-07T00:54:11;101989.78;;;6.76;100.00
1480;BME280;732;51.698;4.886;2022-12-07T00:56:39;101996.91;;;6.64;100.00
1480;BME280;732;51.698;4.886;2022-12-07T00:59:13;101974.63;;;6.51;100.00
1480;BME280;732;51.698;4.886;2022-12-07T01:01:42;102021.22;;;6.98;100.00
1480;BME280;732;51.698;4.886;2022-12-07T01:04:10;101915.47;;;6.46;100.00
1480;BME280;732;51.698;4.886;2022-12-07T01:06:39;102018.00;;;7.20;100.00
1480;BME280;732;51.698;4.886;2022-12-07T01:09:07;102014.53;;;7.37;100.00
1480;BME280;732;51.698;4.886;2022-12-07T01:11:37;102013.94;;;7.42;100.00
1480;BME280;732;51.698;4.886;2022-12-07T01:14:05;101980.72;;;7.19;100.00
1480;BME280;732;51.698;4.886;2022-12-07T01:16:34;101995.28;;;7.33;100.00
1480;BME280;732;51.698;4.886;2022-12-07T01:19:02;101994.03;;;7.43;100.00
1480;BME280;732;51.698;4.886;2022-12-07T01:21:34;101961.03;;;7.24;100.00
1480;BME280;732;51.698;4.886;2022-12-07T01:24:07;101980.00;;;7.39;100.00
1480;BME280;732;51.698;4.886;2022-12-07T01:26:38;101993.97;;;7.41;100.00
1480;BME280;732;51.698;4.886;2022-12-07T01:29:07;101998.34;;;7.42;100.00
1480;BME280;732;51.698;4.886;2022-12-07T01:31:35;101999.59;;;7.50;100.00
1480;BME280;732;51.698;4.886;2022-12-07T01:34:04;101937.34;;;7.18;100.00
1480;BME280;732;51.698;4.886;2022-12-07T01:36:35;102003.19;;;7.52;100.00
1480;BME280;732;51.698;4.886;2022-12-07T01:39:06;101953.91;;;7.20;100.00
1480;BME280;732;51.698;4.886;2022-12-07T01:41:39;101997.53;;;7.43;100.00
1480;BME280;732;51.698;4.886;2022-12-07T01:44:20;102006.13;;;7.42;100.00
1480;BME280;732;51.698;4.886;2022-12-07T01:46:51;101952.03;;;7.00;100.00
1480;BME280;732;51.698;4.886;2022-12-07T01:49:29;102001.00;;;7.26;100.00
1480;BME280;732;51.698;4.886;2022-12-07T01:52:09;101980.69;;;7.02;100.00
1480;BME280;732;51.698;4.886;2022-12-07T01:54:42;101982.84;;;6.93;100.00
1480;BME280;732;51.698;4.886;2022-12-07T01:57:15;102003.53;;;6.91;100.00
1480;BME280;732;51.698;4.886;2022-12-07T01:59:47;102002.56;;;6.89;100.00
1480;BME280;732;51.698;4.886;2022-12-07T02:02:22;102014.72;;;6.90;100.00
1480;BME280;732;51.698;4.886;2022-12-07T02:04:52;101977.44;;;6.72;100.00
1480;BME280;732;51.698;4.886;2022-12-07T02:07:23;101983.03;;;6.80;100.00
1480;BME280;732;51.698;4.886;2022-12-07T02:09:51;102013.44;;;6.82;100.00
1480;BME280;732;51.698;4.886;2022-12-07T02:12:22;102016.59;;;6.93;100.00
1480;BME280;732;51.698;4.886;2022-12-07T02:14:52;102023.31;;;7.05;100.00
1480;BME280;732;51.698;4.886;2022-12-07T02:17:26;101973.66;;;7.17;100.00
1480;BME280;732;51.698;4.886;2022-12-07T02:20:21;102005.81;;;7.36;100.00
1480;BME280;732;51.698;4.886;2022-12-07T02:26:41;101983.88;;;7.47;100.00
1480;BME280;732;51.698;4.886;2022-12-07T02:29:22;101980.97;;;7.41;100.00
1480;BME280;732;51.698;4.886;2022-12-07T02:31:59;102006.88;;;7.57;100.00
1480;BME280;732;51.698;4.886;2022-12-07T02:34:41;101991.75;;;7.49;100.00
1480;BME280;732;51.698;4.886;2022-12-07T02:37:23;102006.88;;;7.57;100.00
1480;BME280;732;51.698;4.886;2022-12-07T02:39:59;101998.28;;;7.58;100.00
1480;BME280;732;51.698;4.886;2022-12-07T02:42:33;101989.13;;;7.49;100.00
1480;BME280;732;51.698;4.886;2022-12-07T02:45:09;101988.84;;;7.43;100.00
1480;BME280;732;51.698;4.886;2022-12-07T02:47:40;101973.38;;;7.28;100.00
1480;BME280;732;51.698;4.886;2022-12-07T02:50:10;101961.47;;;7.16;100.00
1480;BME280;732;51.698;4.886;2022-12-07T02:52:38;101952.72;;;7.14;100.00
1480;BME280;732;51.698;4.886;2022-12-07T02:55:08;101993.66;;;7.35;100.00
1480;BME280;732;51.698;4.886;2022-12-07T02:57:50;101930.09;;;6.95;100.00
1480;BME280;732;51.698;4.886;2022-12-07T03:00:23;101955.88;;;7.08;100.00
1480;BME280;732;51.698;4.886;2022-12-07T03:02:56;101997.75;;;7.30;100.00
1480;BME280;732;51.698;4.886;2022-12-07T03:05:43;101994.97;;;7.27;100.00
1480;BME280;732;51.698;4.886;2022-12-07T03:08:23;101976.28;;;7.01;100.00
1480;BME280;732;51.698;4.886;2022-12-07T03:10:57;101993.94;;;7.06;100.00
1480;BME280;732;51.698;4.886;2022-12-07T03:13:33;101973.88;;;6.88;100.00
1480;BME280;732;51.698;4.886;2022-12-07T03:16:10;101961.59;;;6.67;100.00
1480;BME280;732;51.698;4.886;2022-12-07T03:18:45;101984.66;;;6.78;100.00
1480;BME280;732;51.698;4.886;2022-12-07T03:21:20;101958.28;;;6.54;100.00
1480;BME280;732;51.698;4.886;2022-12-07T03:23:55;101956.03;;;6.44;100.00
1480;BME280;732;51.698;4.886;2022-12-07T03:26:31;101950.44;;;6.36;100.00
1480;BME280;732;51.698;4.886;2022-12-07T03:29:05;101943.81;;;6.25;100.00
1480;BME280;732;51.698;4.886;2022-12-07T03:31:41;101987.09;;;6.58;100.00
1480;BME280;732;51.698;4.886;2022-12-07T03:34:14;101988.88;;;6.59;100.00
1480;BME280;732;51.698;4.886;2022-12-07T03:36:48;101962.28;;;6.47;100.00
1480;BME280;732;51.698;4.886;2022-12-07T03:39:24;101984.19;;;6.68;100.00
1480;BME280;732;51.698;4.886;2022-12-07T03:41:55;101957.41;;;6.53;100.00
1480;BME280;732;51.698;4.886;2022-12-07T03:44:25;101976.94;;;6.79;100.00
1480;BME280;732;51.698;4.886;2022-12-07T03:47:02;101980.31;;;6.94;100.00
1480;BME280;732;51.698;4.886;2022-12-07T03:49:41;101990.03;;;6.98;100.00
1480;BME280;732;51.698;4.886;2022-12-07T03:52:20;101982.31;;;7.00;100.00
1480;BME280;732;51.698;4.886;2022-12-07T03:54:55;101976.22;;;6.99;100.00
1480;BME280;732;51.698;4.886;2022-12-07T03:57:28;101980.94;;;7.06;100.00
1480;BME280;732;51.698;4.886;2022-12-07T03:59:58;101974.00;;;7.07;100.00
1480;BME280;732;51.698;4.886;2022-12-07T04:02:40;101904.31;;;6.64;100.00
1480;BME280;732;51.698;4.886;2022-12-07T04:05:10;101975.16;;;7.12;100.00
1480;BME280;732;51.698;4.886;2022-12-07T04:07:39;101971.78;;;7.14;100.00
1480;BME280;732;51.698;4.886;2022-12-07T04:10:09;101976.31;;;7.18;100.00
1480;BME280;732;51.698;4.886;2022-12-07T04:12:38;101986.19;;;7.08;100.00
1480;BME280;732;51.698;4.886;2022-12-07T04:15:08;101921.59;;;6.64;100.00
1480;BME280;732;51.698;4.886;2022-12-07T04:17:38;101981.00;;;6.74;100.00
1480;BME280;732;51.698;4.886;2022-12-07T04:20:09;101985.81;;;6.66;100.00
1480;BME280;732;51.698;4.886;2022-12-07T04:22:39;101982.13;;;6.79;100.00
1480;BME280;732;51.698;4.886;2022-12-07T04:25:08;101975.84;;;6.92;100.00
1480;BME280;732;51.698;4.886;2022-12-07T04:27:36;101985.22;;;7.06;100.00
1480;BME280;732;51.698;4.886;2022-12-07T04:30:06;101969.63;;;7.06;100.00
1480;BME280;732;51.698;4.886;2022-12-07T04:32:35;101984.44;;;7.24;100.00
1480;BME280;732;51.698;4.886;2022-12-07T04:35:07;101973.81;;;7.20;100.00
1480;BME280;732;51.698;4.886;2022-12-07T04:37:35;101926.44;;;7.08;100.00
1480;BME280;732;51.698;4.886;2022-12-07T04:40:09;101974.34;;;7.30;100.00
1480;BME280;732;51.698;4.886;2022-12-07T04:42:38;101948.28;;;7.29;100.00
1480;BME280;732;51.698;4.886;2022-12-07T04:45:08;101921.88;;;7.04;100.00
1480;BME280;732;51.698;4.886;2022-12-07T04:47:37;101957.72;;;7.27;100.00
1480;BME280;732;51.698;4.886;2022-12-07T04:50:09;101951.16;;;7.17;100.00
1480;BME280;732;51.698;4.886;2022-12-07T04:52:38;101911.47;;;6.86;100.00
1480;BME280;732;51.698;4.886;2022-12-07T04:55:07;101925.81;;;6.78;100.00
1480;BME280;732;51.698;4.886;2022-12-07T04:57:35;101951.03;;;6.81;100.00
1480;BME280;732;51.698;4.886;2022-12-07T05:00:05;101931.00;;;6.62;100.00
1480;BME280;732;51.698;4.886;2022-12-07T05:02:34;101915.53;;;6.31;100.00
1480;BME280;732;51.698;4.886;2022-12-07T05:05:03;101943.94;;;6.44;100.00
1480;BME280;732;51.698;4.886;2022-12-07T05:07:33;101938.03;;;6.31;100.00
1480;BME280;732;51.698;4.886;2022-12-07T05:10:01;101937.63;;;6.23;100.00
1480;BME280;732;51.698;4.886;2022-12-07T05:12:30;101917.19;;;5.97;100.00
1480;BME280;732;51.698;4.886;2022-12-07T05:14:58;101928.63;;;6.01;100.00
1480;BME280;732;51.698;4.886;2022-12-07T05:17:27;101932.91;;;6.00;100.00
1480;BME280;732;51.698;4.886;2022-12-07T05:19:55;101937.28;;;6.01;100.00
1480;BME280;732;51.698;4.886;2022-12-07T05:22:23;101939.56;;;5.95;100.00
1480;BME280;732;51.698;4.886;2022-12-07T05:24:56;101937.53;;;5.90;100.00
1480;BME280;732;51.698;4.886;2022-12-07T05:27:25;101922.88;;;5.75;100.00
1480;BME280;732;51.698;4.886;2022-12-07T05:29:54;101921.41;;;5.64;100.00
1480;BME280;732;51.698;4.886;2022-12-07T05:32:23;101891.78;;;5.45;100.00
1480;BME280;732;51.698;4.886;2022-12-07T05:34:51;101930.66;;;5.59;100.00
1480;BME280;732;51.698;4.886;2022-12-07T05:37:21;101952.09;;;5.57;100.00
1480;BME280;732;51.698;4.886;2022-12-07T05:39:50;101849.94;;;4.92;100.00
1480;BME280;732;51.698;4.886;2022-12-07T05:42:20;101952.94;;;5.41;100.00
1480;BME280;732;51.698;4.886;2022-12-07T05:44:48;101932.63;;;5.18;100.00
1480;BME280;732;51.698;4.886;2022-12-07T05:47:16;101952.06;;;5.26;100.00
1480;BME280;732;51.698;4.886;2022-12-07T05:49:45;101840.97;;;4.56;100.00
1480;BME280;732;51.698;4.886;2022-12-07T05:52:15;101949.41;;;5.10;100.00
1480;BME280;732;51.698;4.886;2022-12-07T05:54:43;101934.41;;;5.05;100.00
1480;BME280;732;51.698;4.886;2022-12-07T05:57:12;101927.25;;;5.01;100.00
1480;BME280;732;51.698;4.886;2022-12-07T05:59:42;101921.81;;;4.96;100.00
1480;BME280;732;51.698;4.886;2022-12-07T06:02:12;101905.75;;;4.87;100.00
1480;BME280;732;51.698;4.886;2022-12-07T06:04:44;101892.00;;;4.73;100.00
1480;BME280;732;51.698;4.886;2022-12-07T06:07:15;101934.88;;;4.98;100.00
1480;BME280;732;51.698;4.886;2022-12-07T06:09:44;101929.34;;;4.92;100.00
1480;BME280;732;51.698;4.886;2022-12-07T06:12:13;101940.16;;;4.84;100.00
1480;BME280;732;51.698;4.886;2022-12-07T06:15:01;101936.47;;;4.81;100.00
1480;BME280;732;51.698;4.886;2022-12-07T06:17:30;101893.53;;;4.55;100.00
1480;BME280;732;51.698;4.886;2022-12-07T06:19:59;101940.94;;;4.83;100.00
1480;BME280;732;51.698;4.886;2022-12-07T06:22:28;101925.22;;;4.80;100.00
1480;BME280;732;51.698;4.886;2022-12-07T06:24:57;101916.19;;;4.74;100.00
1480;BME280;732;51.698;4.886;2022-12-07T06:27:31;101939.31;;;4.85;100.00
1480;BME280;732;51.698;4.886;2022-12-07T06:30:04;101938.06;;;4.79;100.00
1480;BME280;732;51.698;4.886;2022-12-07T06:32:36;101935.22;;;4.74;100.00
1480;BME280;732;51.698;4.886;2022-12-07T06:35:05;101934.53;;;4.77;100.00
1480;BME280;732;51.698;4.886;2022-12-07T06:37:34;101934.84;;;4.83;100.00
1480;BME280;732;51.698;4.886;2022-12-07T06:40:03;101938.63;;;4.88;100.00
1480;BME280;732;51.698;4.886;2022-12-07T06:42:32;101944.25;;;4.96;100.00
1480;BME280;732;51.698;4.886;2022-12-07T06:45:02;101957.44;;;5.00;100.00
1480;BME280;732;51.698;4.886;2022-12-07T06:47:30;101960.50;;;4.93;100.00
1480;BME280;732;51.698;4.886;2022-12-07T06:50:10;101966.94;;;5.00;100.00
1480;BME280;732;51.698;4.886;2022-12-07T06:52:38;101938.97;;;4.65;100.00
1480;BME280;732;51.698;4.886;2022-12-07T06:55:07;101973.69;;;4.68;100.00
1480;BME280;732;51.698;4.886;2022-12-07T06:57:35;101957.53;;;4.87;100.00
1480;BME280;732;51.698;4.886;2022-12-07T07:00:07;101959.06;;;4.83;100.00
1480;BME280;732;51.698;4.886;2022-12-07T07:02:36;101971.31;;;5.01;100.00
1480;BME280;732;51.698;4.886;2022-12-07T07:05:05;101967.72;;;4.99;100.00
1480;BME280;732;51.698;4.886;2022-12-07T07:07:33;101968.97;;;4.91;100.00
1480;BME280;732;51.698;4.886;2022-12-07T07:10:21;101961.66;;;4.83;100.00
1480;BME280;732;51.698;4.886;2022-12-07T07:12:50;101965.75;;;4.80;100.00
1480;BME280;732;51.698;4.886;2022-12-07T07:15:25;101968.44;;;4.81;100.00
1480;BME280;732;51.698;4.886;2022-12-07T07:17:53;101968.19;;;4.77;100.00
1480;BME280;732;51.698;4.886;2022-12-07T07:20:21;101965.69;;;4.78;100.00
1480;BME280;732;51.698;4.886;2022-12-07T07:22:50;101964.78;;;4.78;100.00
1480;BME280;732;51.698;4.886;2022-12-07T07:25:19;101934.50;;;4.62;100.00
1480;BME280;732;51.698;4.886;2022-12-07T07:27:47;101907.91;;;4.50;100.00
1480;BME280;732;51.698;4.886;2022-12-07T07:30:17;101954.94;;;4.72;100.00
1480;BME280;732;51.698;4.886;2022-12-07T07:32:47;101956.56;;;4.70;100.00
1480;BME280;732;51.698;4.886;2022-12-07T07:35:15;101954.88;;;4.71;100.00
1480;BME280;732;51.698;4.886;2022-12-07T07:37:44;101946.91;;;4.68;100.00
1480;BME280;732;51.698;4.886;2022-12-07T07:40:14;101955.03;;;4.74;100.00
1480;BME280;732;51.698;4.886;2022-12-07T07:42:42;101947.09;;;4.71;100.00
1480;BME280;732;51.698;4.886;2022-12-07T07:45:11;101952.00;;;4.66;100.00
1480;BME280;732;51.698;4.886;2022-12-07T07:47:39;101906.38;;;4.39;100.00
1480;BME280;732;51.698;4.886;2022-12-07T07:50:10;101953.59;;;4.64;100.00
1480;BME280;732;51.698;4.886;2022-12-07T07:52:39;101933.50;;;4.46;100.00
1480;BME280;732;51.698;4.886;2022-12-07T07:55:08;101971.56;;;4.76;100.00
1480;BME280;732;51.698;4.886;2022-12-07T07:57:38;101943.78;;;4.59;100.00
1480;BME280;732;51.698;4.886;2022-12-07T08:00:10;101989.91;;;4.66;100.00
1480;BME280;732;51.698;4.886;2022-12-07T08:02:39;101974.69;;;4.85;100.00
1480;BME280;732;51.698;4.886;2022-12-07T08:05:12;101981.56;;;5.14;100.00
1480;BME280;732;51.698;4.886;2022-12-07T08:07:41;101985.91;;;5.44;100.00
1480;BME280;732;51.698;4.886;2022-12-07T08:10:12;101932.31;;;5.28;100.00
1480;BME280;732;51.698;4.886;2022-12-07T08:12:43;101929.91;;;5.31;100.00
1480;BME280;732;51.698;4.886;2022-12-07T08:15:30;101937.94;;;5.36;100.00
1480;BME280;732;51.698;4.886;2022-12-07T08:17:59;101915.00;;;5.27;100.00
1480;BME280;732;51.698;4.886;2022-12-07T08:20:30;101975.84;;;5.64;100.00
1480;BME280;732;51.698;4.886;2022-12-07T08:22:59;101960.59;;;5.54;100.00
1480;BME280;732;51.698;4.886;2022-12-07T08:25:28;101971.78;;;5.53;100.00
1480;BME280;732;51.698;4.886;2022-12-07T08:27:58;101969.09;;;5.52;100.00
1480;BME280;732;51.698;4.886;2022-12-07T08:30:27;101959.47;;;5.35;100.00
1480;BME280;732;51.698;4.886;2022-12-07T08:32:56;101972.69;;;5.39;100.00
1480;BME280;732;51.698;4.886;2022-12-07T08:35:25;101944.59;;;5.16;100.00
1480;BME280;732;51.698;4.886;2022-12-07T08:37:56;101965.84;;;5.25;100.00
1480;BME280;732;51.698;4.886;2022-12-07T08:40:24;101968.34;;;5.24;100.00
1480;BME280;732;51.698;4.886;2022-12-07T08:42:53;101958.41;;;5.17;100.00
1480;BME280;732;51.698;4.886;2022-12-07T08:45:22;101976.38;;;5.28;100.00
1480;BME280;732;51.698;4.886;2022-12-07T08:47:58;101957.34;;;5.28;100.00
1480;BME280;732;51.698;4.886;2022-12-07T08:50:30;101970.00;;;5.38;100.00
1480;BME280;732;51.698;4.886;2022-12-07T08:53:01;101977.44;;;5.46;100.00
1480;BME280;732;51.698;4.886;2022-12-07T08:55:31;101952.22;;;5.44;100.00
1480;BME280;732;51.698;4.886;2022-12-07T08:58:02;101962.06;;;5.65;100.00
1480;BME280;732;51.698;4.886;2022-12-07T09:00:31;101969.81;;;5.80;100.00
1480;BME280;732;51.698;4.886;2022-12-07T09:03:00;101912.31;;;5.56;100.00
1480;BME280;732;51.698;4.886;2022-12-07T09:05:28;101987.25;;;5.97;100.00
1480;BME280;732;51.698;4.886;2022-12-07T09:08:01;101970.44;;;5.91;100.00
1480;BME280;732;51.698;4.886;2022-12-07T09:10:32;101900.53;;;5.47;100.00
1480;BME280;732;51.698;4.886;2022-12-07T09:13:00;101940.06;;;5.73;100.00
1480;BME280;732;51.698;4.886;2022-12-07T09:15:29;101987.41;;;6.00;100.00
1480;BME280;732;51.698;4.886;2022-12-07T09:17:59;101925.25;;;5.71;100.00
1480;BME280;732;51.698;4.886;2022-12-07T09:20:27;101967.13;;;5.93;100.00
1480;BME280;732;51.698;4.886;2022-12-07T09:22:55;101972.13;;;5.90;100.00
1480;BME280;732;51.698;4.886;2022-12-07T09:25:25;101973.50;;;5.84;100.00
1480;BME280;732;51.698;4.886;2022-12-07T09:27:58;101975.28;;;5.85;100.00
1480;BME280;732;51.698;4.886;2022-12-07T09:30:28;101974.84;;;5.92;100.00
1480;BME280;732;51.698;4.886;2022-12-07T09:32:57;101970.50;;;5.92;100.00
1480;BME280;732;51.698;4.886;2022-12-07T09:35:25;101969.50;;;6.05;100.00
1480;BME280;732;51.698;4.886;2022-12-07T09:37:54;101970.47;;;6.07;100.00
1480;BME280;732;51.698;4.886;2022-12-07T09:40:24;101966.06;;;6.06;100.00
1480;BME280;732;51.698;4.886;2022-12-07T09:42:55;101966.97;;;6.06;100.00
1480;BME280;732;51.698;4.886;2022-12-07T09:45:27;101976.59;;;6.09;100.00
1480;BME280;732;51.698;4.886;2022-12-07T09:47:58;101952.75;;;5.84;100.00
1480;BME280;732;51.698;4.886;2022-12-07T09:50:28;101947.16;;;5.92;100.00
1480;BME280;732;51.698;4.886;2022-12-07T09:53:07;101958.38;;;6.07;100.00
1480;BME280;732;51.698;4.886;2022-12-07T09:55:38;101985.16;;;6.22;100.00
1480;BME280;732;51.698;4.886;2022-12-07T09:58:17;101950.50;;;6.06;100.00
1480;BME280;732;51.698;4.886;2022-12-07T10:00:45;101961.63;;;6.35;100.00
1480;BME280;732;51.698;4.886;2022-12-07T10:03:14;101930.66;;;6.22;100.00
1480;BME280;732;51.698;4.886;2022-12-07T10:05:46;101911.75;;;6.09;100.00
1480;BME280;732;51.698;4.886;2022-12-07T10:08:15;101973.41;;;6.61;100.00
1480;BME280;732;51.698;4.886;2022-12-07T10:10:52;101966.72;;;6.66;100.00
1480;BME280;732;51.698;4.886;2022-12-07T10:13:34;101971.06;;;6.83;100.00
1480;BME280;732;51.698;4.886;2022-12-07T10:16:05;101950.31;;;6.67;100.00
1480;BME280;732;51.698;4.886;2022-12-07T10:18:35;101966.19;;;6.89;100.00
1480;BME280;732;51.698;4.886;2022-12-07T10:21:14;101964.75;;;7.12;100.00
1480;BME280;732;51.698;4.886;2022-12-07T10:24:00;101962.31;;;7.32;100.00
1480;BME280;732;51.698;4.886;2022-12-07T10:26:33;101943.00;;;7.45;100.00
1480;BME280;732;51.698;4.886;2022-12-07T10:29:14;101954.63;;;7.70;100.00
1480;BME280;732;51.698;4.886;2022-12-07T10:31:45;101964.78;;;7.84;100.00
1480;BME280;732;51.698;4.886;2022-12-07T10:34:23;101964.47;;;7.95;100.00
1480;BME280;732;51.698;4.886;2022-12-07T10:36:53;101945.09;;;7.89;100.00
1480;BME280;732;51.698;4.886;2022-12-07T10:39:23;101961.06;;;8.15;100.00
1480;BME280;732;51.698;4.886;2022-12-07T10:41:58;101934.91;;;8.12;100.00
1480;BME280;732;51.698;4.886;2022-12-07T10:44:29;101951.03;;;8.42;100.00
1480;BME280;732;51.698;4.886;2022-12-07T10:47:22;101941.16;;;8.54;100.00
1480;BME280;732;51.698;4.886;2022-12-07T10:50:22;101935.78;;;8.70;100.00
1480;BME280;732;51.698;4.886;2022-12-07T10:56:47;101932.34;;;8.50;100.00
1480;BME280;732;51.698;4.886;2022-12-07T10:59:52;101890.69;;;8.31;100.00
1480;BME280;732;51.698;4.886;2022-12-07T11:02:36;101919.59;;;8.56;100.00
1480;BME280;732;51.698;4.886;2022-12-07T11:05:21;101911.81;;;8.58;100.00
1480;BME280;732;51.698;4.886;2022-12-07T11:08:03;101890.59;;;8.49;100.00
1480;BME280;732;51.698;4.886;2022-12-07T11:10:41;101870.91;;;8.17;100.00
1480;BME280;732;51.698;4.886;2022-12-07T11:13:29;101894.63;;;8.42;100.00
1480;BME280;732;51.698;4.886;2022-12-07T11:16:21;101833.75;;;8.21;100.00
1480;BME280;732;51.698;4.886;2022-12-07T11:19:16;101888.78;;;8.48;100.00
1480;BME280;732;51.698;4.886;2022-12-07T11:21:57;101871.31;;;8.45;100.00
1480;BME280;732;51.698;4.886;2022-12-07T11:24:35;101868.16;;;8.52;100.00
1480;BME280;732;51.698;4.886;2022-12-07T11:27:19;101834.41;;;8.55;100.00
1480;BME280;732;51.698;4.886;2022-12-07T11:30:14;101887.22;;;9.13;100.00
1480;BME280;732;51.698;4.886;2022-12-07T11:33:10;101864.34;;;9.06;100.00
1480;BME280;732;51.698;4.886;2022-12-07T11:35:54;101868.84;;;9.10;100.00
1480;BME280;732;51.698;4.886;2022-12-07T11:38:35;101885.88;;;9.45;100.00
1480;BME280;732;51.698;4.886;2022-12-07T11:41:08;101838.88;;;9.43;100.00
1480;BME280;732;51.698;4.886;2022-12-07T11:43:55;101811.69;;;9.60;100.00
1480;BME280;732;51.698;4.886;2022-12-07T11:46:29;101860.47;;;10.31;100.00
1480;BME280;732;51.698;4.886;2022-12-07T11:49:11;101859.22;;;10.20;100.00
1480;BME280;732;51.698;4.886;2022-12-07T11:51:42;101854.84;;;9.97;100.00
1480;BME280;732;51.698;4.886;2022-12-07T11:54:18;101841.94;;;9.78;100.00
1480;BME280;732;51.698;4.886;2022-12-07T11:56:50;101831.69;;;9.82;100.00
1480;BME280;732;51.698;4.886;2022-12-07T11:59:27;101834.09;;;9.54;100.00
1480;BME280;732;51.698;4.886;2022-12-07T12:02:12;101825.88;;;9.45;100.00
1480;BME280;732;51.698;4.886;2022-12-07T12:04:51;101819.00;;;9.47;100.00
1480;BME280;732;51.698;4.886;2022-12-07T12:07:25;101788.44;;;9.21;100.00
1480;BME280;732;51.698;4.886;2022-12-07T12:10:19;101773.09;;;9.06;100.00
1480;BME280;732;51.698;4.886;2022-12-07T12:13:10;101806.63;;;9.19;100.00
1480;BME280;732;51.698;4.886;2022-12-07T12:16:47;101810.13;;;8.98;100.00
1480;BME280;732;51.698;4.886;2022-12-07T12:19:26;101806.69;;;8.99;100.00
1480;BME280;732;51.698;4.886;2022-12-07T12:22:11;101814.13;;;8.90;100.00
1480;BME280;732;51.698;4.886;2022-12-07T12:24:41;101811.53;;;8.90;100.00
1480;BME280;732;51.698;4.886;2022-12-07T12:27:21;101805.41;;;8.89;100.00
1480;BME280;732;51.698;4.886;2022-12-07T12:29:54;101787.25;;;8.70;100.00
1480;BME280;732;51.698;4.886;2022-12-07T12:32:34;101790.88;;;8.74;100.00
1480;BME280;732;51.698;4.886;2022-12-07T12:35:29;101807.06;;;8.87;100.00
1480;BME280;732;51.698;4.886;2022-12-07T12:38:33;101810.13;;;8.98;100.00
1480;BME280;732;51.698;4.886;2022-12-07T12:41:03;101806.31;;;8.90;100.00
1480;BME280;732;51.698;4.886;2022-12-07T12:43:56;101806.56;;;8.96;100.00
1480;BME280;732;51.698;4.886;2022-12-07T12:46:49;101797.59;;;8.89;100.00
1480;BME280;732;51.698;4.886;2022-12-07T12:49:43;101806.09;;;9.06;100.00
1480;BME280;732;51.698;4.886;2022-12-07T12:52:49;101794.47;;;9.42;100.00
1480;BME280;732;51.698;4.886;2022-12-07T12:58:36;101768.19;;;9.37;100.00
1480;BME280;732;51.698;4.886;2022-12-07T13:01:44;101792.03;;;9.46;100.00
1480;BME280;732;51.698;4.886;2022-12-07T13:04:37;101801.41;;;8.97;100.00
1480;BME280;732;51.698;4.886;2022-12-07T13:07:13;101794.53;;;8.36;100.00
1480;BME280;732;51.698;4.886;2022-12-07T13:09:44;101796.59;;;8.05;100.00
1480;BME280;732;51.698;4.886;2022-12-07T13:12:16;101796.31;;;7.99;100.00
1480;BME280;732;51.698;4.886;2022-12-07T13:14:58;101712.34;;;7.63;100.00
1480;BME280;732;51.698;4.886;2022-12-07T13:18:00;101756.66;;;8.04;100.00
1480;BME280;732;51.698;4.886;2022-12-07T13:20:53;101788.31;;;8.13;100.00
1480;BME280;732;51.698;4.886;2022-12-07T13:23:31;101770.47;;;8.22;100.00
1480;BME280;732;51.698;4.886;2022-12-07T13:26:16;101771.41;;;8.43;100.00
1480;BME280;732;51.698;4.886;2022-12-07T13:28:49;101764.78;;;8.51;100.00
1480;BME280;732;51.698;4.886;2022-12-07T13:31:30;101769.19;;;8.52;100.00
1480;BME280;732;51.698;4.886;2022-12-07T13:34:01;101764.38;;;8.22;100.00
1480;BME280;732;51.698;4.886;2022-12-07T13:36:32;101757.19;;;8.16;100.00
1480;BME280;732;51.698;4.886;2022-12-07T13:39:18;101765.56;;;8.28;100.00
1480;BME280;732;51.698;4.886;2022-12-07T13:41:52;101750.16;;;8.34;100.00
1480;BME280;732;51.698;4.886;2022-12-07T13:44:25;101704.81;;;8.09;100.00
1480;BME280;732;51.698;4.886;2022-12-07T13:47:03;101748.09;;;8.26;100.00
1480;BME280;732;51.698;4.886;2022-12-07T13:49:45;101698.38;;;8.01;100.00
1480;BME280;732;51.698;4.886;2022-12-07T13:52:22;101719.72;;;7.92;100.00
1480;BME280;732;51.698;4.886;2022-12-07T13:54:58;101744.47;;;8.03;100.00
1480;BME280;732;51.698;4.886;2022-12-07T13:57:29;101737.94;;;8.13;100.00
1480;BME280;732;51.698;4.886;2022-12-07T14:00:04;101741.19;;;8.07;100.00
1480;BME280;732;51.698;4.886;2022-12-07T14:02:34;101741.50;;;8.15;100.00
1480;BME280;732;51.698;4.886;2022-12-07T14:05:22;101743.13;;;8.32;100.00
1480;BME280;732;51.698;4.886;2022-12-07T14:07:55;101694.53;;;8.32;100.00
1480;BME280;732;51.698;4.886;2022-12-07T14:10:28;101675.13;;;8.24;100.00